createdAt,value
2022-12-11T00:00:15.660Z,-1.17
2022-12-11T00:02:44.424Z,-1.19
2022-12-11T00:05:12.841Z,-1.18
2022-12-11T00:07:40.947Z,-1.19
2022-12-11T00:10:11.768Z,-1.22
2022-12-11T00:12:42.622Z,-1.19
2022-12-11T00:15:13.075Z,-1.16
2022-12-11T00:17:41.560Z,-1.13
2022-12-11T00:20:12.669Z,-1.12
2022-12-11T00:22:40.583Z,-1.07
2022-12-11T00:25:09.930Z,-1.12
2022-12-11T00:27:38.611Z,-1.08
2022-12-11T00:30:10.540Z,-1.09
2022-12-11T00:32:40.236Z,-1.08
2022-12-11T00:35:10.350Z,-1.08
2022-12-11T00:37:38.559Z,-1.06
2022-12-11T00:40:08.435Z,-1.06
2022-12-11T00:42:37.190Z,-1.05
2022-12-11T00:45:08.814Z,-1.03
2022-12-11T00:47:37.145Z,-1.08
2022-12-11T00:50:09.377Z,-1.06
2022-12-11T00:52:37.901Z,-1.05
2022-12-11T00:55:07.560Z,-1.03
2022-12-11T00:57:37.105Z,-1.04
2022-12-11T01:00:07.311Z,-1.06
2022-12-11T01:02:36.427Z,-1.04
2022-12-11T01:05:06.933Z,-1.07
2022-12-11T01:07:35.015Z,-1.11
2022-12-11T01:10:23.154Z,-1.09
2022-12-11T01:12:52.358Z,-1.08
2022-12-11T01:15:24.014Z,-1.08
2022-12-11T01:17:53.050Z,-1.03
2022-12-11T01:20:24.381Z,-1.04
2022-12-11T01:22:57.788Z,-1.06
2022-12-11T01:25:27.741Z,-1.03
2022-12-11T01:27:57.034Z,-1.06
2022-12-11T01:30:26.753Z,-1.06
2022-12-11T01:32:55.908Z,-1.05
2022-12-11T01:35:25.413Z,-0.96
2022-12-11T01:37:55.371Z,-1.07
2022-12-11T01:40:24.581Z,-1.04
2022-12-11T01:42:52.811Z,-1.06
2022-12-11T01:45:45.923Z,-1.09
2022-12-11T01:48:16.199Z,-1.01
2022-12-11T01:50:50.123Z,-1.06
2022-12-11T01:53:21.472Z,-1.12
2022-12-11T01:55:51.561Z,-1.08
2022-12-11T01:58:21.559Z,-1.09
2022-12-11T02:00:49.781Z,-1.07
2022-12-11T02:03:19.946Z,-1.10
2022-12-11T02:05:49.311Z,-1.12
2022-12-11T02:08:18.054Z,-1.15
2022-12-11T02:11:03.139Z,-1.14
2022-12-11T02:13:38.502Z,-1.14
2022-12-11T02:16:10.630Z,-1.18
2022-12-11T02:18:46.415Z,-1.16
2022-12-11T02:21:22.895Z,-1.15
2022-12-11T02:24:02.351Z,-1.18
2022-12-11T02:26:43.949Z,-1.17
2022-12-11T02:29:15.976Z,-1.18
2022-12-11T02:31:47.443Z,-1.16
2022-12-11T02:34:22.056Z,-1.21
2022-12-11T02:36:52.473Z,-1.21
2022-12-11T02:39:22.931Z,-1.18
2022-12-11T02:41:52.255Z,-1.21
2022-12-11T02:44:23.669Z,-1.22
2022-12-11T02:46:53.112Z,-1.24
2022-12-11T02:49:24.252Z,-1.27
2022-12-11T02:51:54.379Z,-1.28
2022-12-11T02:54:26.924Z,-1.36
2022-12-11T02:57:00.640Z,-1.35
2022-12-11T02:59:35.786Z,-1.35
2022-12-11T03:02:04.953Z,-1.35
2022-12-11T03:04:34.346Z,-1.32
2022-12-11T03:07:11.959Z,-1.40
2022-12-11T03:09:42.290Z,-1.41
2022-12-11T03:12:14.863Z,-1.38
2022-12-11T03:14:45.715Z,-1.36
2022-12-11T03:17:19.444Z,-1.36
2022-12-11T03:20:01.030Z,-1.59
2022-12-11T03:22:33.667Z,-1.46
2022-12-11T03:25:05.932Z,-1.48
2022-12-11T03:27:37.695Z,-1.49
2022-12-11T03:30:11.044Z,-1.44
2022-12-11T03:32:42.450Z,-1.39
2022-12-11T03:35:15.249Z,-1.39
2022-12-11T03:37:45.254Z,-1.41
2022-12-11T03:40:17.917Z,-1.41
2022-12-11T03:42:47.990Z,-1.45
2022-12-11T03:45:18.066Z,-1.42
2022-12-11T03:47:47.514Z,-1.37
2022-12-11T03:50:19.996Z,-1.55
2022-12-11T03:52:49.262Z,-1.48
2022-12-11T03:55:18.859Z,-1.48
2022-12-11T03:57:46.957Z,-1.52
2022-12-11T04:00:18.970Z,-1.50
2022-12-11T04:03:12.868Z,-1.68
2022-12-11T04:05:42.933Z,-1.58
2022-12-11T04:08:14.806Z,-1.55
2022-12-11T04:10:43.198Z,-1.53
2022-12-11T04:13:11.895Z,-1.46
2022-12-11T04:15:41.064Z,-1.46
2022-12-11T04:18:27.244Z,-1.62
2022-12-11T04:21:13.069Z,-1.68
2022-12-11T04:23:59.283Z,-1.61
2022-12-11T04:26:29.943Z,-1.48
2022-12-11T04:28:59.190Z,-1.47
2022-12-11T04:31:31.987Z,-1.42
2022-12-11T04:34:00.547Z,-1.43
2022-12-11T04:36:28.532Z,-1.55
2022-12-11T04:38:56.937Z,-1.64
2022-12-11T04:41:26.875Z,-1.59
2022-12-11T04:43:55.519Z,-1.55
2022-12-11T04:46:24.862Z,-1.56
2022-12-11T04:48:57.712Z,-1.44
2022-12-11T04:51:26.807Z,-1.68
2022-12-11T04:53:54.977Z,-1.59
2022-12-11T04:56:23.268Z,-1.61
2022-12-11T04:58:52.792Z,-1.60
2022-12-11T05:01:22.987Z,-1.55
2022-12-11T05:03:50.973Z,-1.49
2022-12-11T05:06:20.313Z,-1.54
2022-12-11T05:08:48.409Z,-1.48
2022-12-11T05:11:18.916Z,-1.44
2022-12-11T05:13:47.627Z,-1.51
2022-12-11T05:16:17.119Z,-1.46
2022-12-11T05:18:48.005Z,-1.46
2022-12-11T05:21:17.991Z,-1.62
2022-12-11T05:23:47.543Z,-1.55
2022-12-11T05:26:17.860Z,-1.56
2022-12-11T05:28:47.032Z,-1.56
2022-12-11T05:31:19.018Z,-1.55
2022-12-11T05:33:49.004Z,-1.56
2022-12-11T05:36:20.177Z,-1.55
2022-12-11T05:38:51.860Z,-1.54
2022-12-11T05:41:22.470Z,-1.60
2022-12-11T05:43:50.803Z,-1.61
2022-12-11T05:46:20.210Z,-1.58
2022-12-11T05:48:49.615Z,-1.57
2022-12-11T05:51:18.173Z,-1.62
2022-12-11T05:53:47.434Z,-1.55
2022-12-11T05:56:19.938Z,-1.56
2022-12-11T05:58:49.130Z,-1.57
2022-12-11T06:01:19.358Z,-1.59
2022-12-11T06:03:47.848Z,-1.59
2022-12-11T06:06:16.267Z,-1.77
2022-12-11T06:08:44.822Z,-1.73
2022-12-11T06:11:14.122Z,-1.69
2022-12-11T06:13:44.268Z,-1.71
2022-12-11T06:16:12.823Z,-1.73
2022-12-11T06:18:42.475Z,-1.76
2022-12-11T06:21:15.226Z,-1.81
2022-12-11T06:23:43.753Z,-1.84
2022-12-11T06:26:12.699Z,-1.86
2022-12-11T06:28:40.968Z,-1.89
2022-12-11T06:31:10.949Z,-1.92
2022-12-11T06:33:39.039Z,-1.84
2022-12-11T06:36:09.174Z,-1.85
2022-12-11T06:38:37.470Z,-1.85
2022-12-11T06:41:06.984Z,-1.80
2022-12-11T06:43:36.138Z,-1.80
2022-12-11T06:46:07.225Z,-1.78
2022-12-11T06:48:36.652Z,-1.71
2022-12-11T06:51:07.607Z,-1.71
2022-12-11T06:53:36.109Z,-1.73
2022-12-11T06:56:05.485Z,-1.85
2022-12-11T06:58:35.544Z,-1.96
2022-12-11T07:01:03.619Z,-1.98
2022-12-11T07:03:31.663Z,-1.95
2022-12-11T07:06:06.346Z,-1.91
2022-12-11T07:08:34.927Z,-1.90
2022-12-11T07:11:05.001Z,-1.85
2022-12-11T07:13:35.815Z,-1.89
2022-12-11T07:16:06.907Z,-1.94
2022-12-11T07:18:34.960Z,-1.93
2022-12-11T07:21:05.212Z,-1.96
2022-12-11T07:23:34.329Z,-1.94
2022-12-11T07:26:05.926Z,-1.94
2022-12-11T07:28:34.403Z,-1.94
2022-12-11T07:31:08.810Z,-2.04
2022-12-11T07:33:38.250Z,-2.01
2022-12-11T07:36:11.373Z,-2.02
2022-12-11T07:38:42.767Z,-1.99
2022-12-11T07:41:13.748Z,-2.03
2022-12-11T07:43:43.029Z,-2.10
2022-12-11T07:46:14.128Z,-2.14
2022-12-11T07:48:43.653Z,-2.10
2022-12-11T07:51:16.086Z,-2.12
2022-12-11T07:53:45.656Z,-2.15
2022-12-11T07:56:13.702Z,-2.15
2022-12-11T07:58:41.645Z,-2.28
2022-12-11T08:01:13.465Z,-2.27
2022-12-11T08:03:43.049Z,-2.23
2022-12-11T08:06:11.703Z,-2.17
2022-12-11T08:08:43.661Z,-2.13
2022-12-11T08:11:14.494Z,-2.16
2022-12-11T08:13:44.062Z,-2.17
2022-12-11T08:16:14.493Z,-2.12
2022-12-11T08:18:43.861Z,-2.14
2022-12-11T08:21:15.836Z,-2.15
2022-12-11T08:23:45.680Z,-2.10
2022-12-11T08:26:16.513Z,-2.01
2022-12-11T08:28:44.789Z,-2.15
2022-12-11T08:31:14.436Z,-2.06
2022-12-11T08:33:44.619Z,-2.13
2022-12-11T08:36:14.435Z,-2.05
2022-12-11T08:38:44.447Z,-2.02
2022-12-11T08:41:16.285Z,-2.10
2022-12-11T08:43:44.963Z,-2.14
2022-12-11T08:46:14.146Z,-2.01
2022-12-11T08:48:44.112Z,-2.01
2022-12-11T08:51:14.074Z,-1.94
2022-12-11T08:53:43.285Z,-1.96
2022-12-11T08:56:15.664Z,-1.87
2022-12-11T08:58:43.940Z,-1.84
2022-12-11T09:01:14.041Z,-1.78
2022-12-11T09:03:43.513Z,-1.77
2022-12-11T09:06:14.251Z,-1.67
2022-12-11T09:08:46.021Z,-1.67
2022-12-11T09:11:20.405Z,-1.70
2022-12-11T09:13:49.388Z,-1.71
2022-12-11T09:16:19.499Z,-1.76
2022-12-11T09:18:49.263Z,-1.68
2022-12-11T09:21:19.491Z,-1.34
2022-12-11T09:23:48.226Z,-1.06
2022-12-11T09:26:21.193Z,-0.97
2022-12-11T09:28:53.156Z,-0.91
2022-12-11T09:31:24.078Z,-1.07
2022-12-11T09:33:55.701Z,-1.21
2022-12-11T09:36:24.716Z,-1.27
2022-12-11T09:38:53.539Z,-1.29
2022-12-11T09:41:38.497Z,-1.38
2022-12-11T09:44:36.025Z,-1.51
2022-12-11T09:47:05.734Z,-1.51
2022-12-11T09:49:39.250Z,-1.60
2022-12-11T09:52:14.472Z,-1.55
2022-12-11T09:54:49.320Z,-1.53
2022-12-11T09:57:33.490Z,-1.45
2022-12-11T10:00:14.610Z,-1.50
2022-12-11T10:02:56.612Z,-1.60
2022-12-11T10:05:34.305Z,-1.49
2022-12-11T10:08:08.578Z,-1.59
2022-12-11T10:10:44.446Z,-1.53
2022-12-11T10:13:25.164Z,-1.59
2022-12-11T10:15:57.817Z,-1.60
2022-12-11T10:18:30.275Z,-1.53
2022-12-11T10:20:59.144Z,-1.46
2022-12-11T10:23:36.751Z,-1.48
2022-12-11T10:26:07.847Z,-1.48
2022-12-11T10:28:39.898Z,-1.40
2022-12-11T10:31:15.432Z,-1.44
2022-12-11T10:33:52.581Z,-1.60
2022-12-11T10:36:26.376Z,-1.56
2022-12-11T10:38:54.773Z,-1.48
2022-12-11T10:41:41.552Z,-1.50
2022-12-11T10:44:19.117Z,-1.59
2022-12-11T10:46:48.598Z,-1.59
2022-12-11T10:49:25.015Z,-1.52
2022-12-11T10:51:54.356Z,-1.53
2022-12-11T10:54:32.916Z,-1.50
2022-12-11T10:57:02.817Z,-1.51
2022-12-11T10:59:36.118Z,-1.48
2022-12-11T11:02:05.488Z,-1.52
2022-12-11T11:04:37.701Z,-1.52
2022-12-11T11:07:13.446Z,-1.45
2022-12-11T11:09:44.493Z,-1.57
2022-12-11T11:12:21.938Z,-1.57
2022-12-11T11:15:03.906Z,-1.74
2022-12-11T11:17:35.314Z,-1.63
2022-12-11T11:20:13.675Z,-1.60
2022-12-11T11:22:45.464Z,-1.47
2022-12-11T11:25:18.641Z,-1.46
2022-12-11T11:28:19.573Z,-1.47
2022-12-11T11:30:58.826Z,-1.46
2022-12-11T11:33:26.981Z,-1.39
2022-12-11T11:35:58.770Z,-1.41
2022-12-11T11:38:30.614Z,-1.40
2022-12-11T11:41:11.530Z,-1.39
2022-12-11T11:43:46.648Z,-1.34
2022-12-11T11:46:23.260Z,-1.43
2022-12-11T11:48:54.848Z,-1.38
2022-12-11T11:51:28.540Z,-1.40
2022-12-11T11:54:03.585Z,-1.38
2022-12-11T11:56:35.544Z,-1.37
2022-12-11T11:59:08.493Z,-1.47
2022-12-11T12:01:40.165Z,-1.49
2022-12-11T12:04:08.518Z,-1.39
2022-12-11T12:06:51.970Z,-1.30
2022-12-11T12:09:29.409Z,-1.15
2022-12-11T12:12:07.973Z,-1.19
2022-12-11T12:14:51.947Z,-1.01
2022-12-11T12:17:28.051Z,-1.08
2022-12-11T12:20:06.519Z,-1.11
2022-12-11T12:22:49.418Z,-1.05
2022-12-11T12:25:25.037Z,-0.94
2022-12-11T12:28:05.986Z,-0.89
2022-12-11T12:30:43.580Z,-0.97
2022-12-11T12:33:22.451Z,-0.87
2022-12-11T12:36:02.076Z,-0.76
2022-12-11T12:38:41.760Z,-0.75
2022-12-11T12:41:19.702Z,-1.05
2022-12-11T12:44:14.103Z,-0.88
2022-12-11T12:46:51.874Z,-0.88
2022-12-11T12:49:31.684Z,-1.08
2022-12-11T12:52:00.481Z,-1.24
2022-12-11T12:54:30.190Z,-1.14
2022-12-11T12:57:01.737Z,-1.04
2022-12-11T12:59:30.203Z,-1.01
2022-12-11T13:02:02.106Z,-0.98
2022-12-11T13:04:55.567Z,-1.05
2022-12-11T13:07:29.861Z,-1.05
2022-12-11T13:10:07.309Z,-1.03
2022-12-11T13:12:44.226Z,-1.12
2022-12-11T13:15:36.732Z,-1.05
2022-12-11T13:18:23.874Z,-0.95
2022-12-11T13:20:54.472Z,-1.03
2022-12-11T13:23:29.733Z,-1.04
2022-12-11T13:26:01.280Z,-1.00
2022-12-11T13:28:51.098Z,-0.98
2022-12-11T13:31:42.882Z,-0.95
2022-12-11T13:34:19.702Z,-0.89
2022-12-11T13:36:52.467Z,-0.91
2022-12-11T13:39:24.382Z,-1.07
2022-12-11T13:41:58.066Z,-1.19
2022-12-11T13:44:47.787Z,-1.12
2022-12-11T13:47:19.041Z,-1.11
2022-12-11T13:49:49.772Z,-1.23
2022-12-11T13:53:05.315Z,-1.14
2022-12-11T13:55:36.406Z,-1.07
2022-12-11T13:58:04.454Z,-1.10
2022-12-11T14:00:34.414Z,-1.10
2022-12-11T14:03:09.320Z,-1.08
2022-12-11T14:05:38.252Z,-1.14
2022-12-11T14:08:14.667Z,-1.10
2022-12-11T14:10:43.643Z,-1.05
2022-12-11T14:13:19.644Z,-1.05
2022-12-11T14:15:51.708Z,-1.10
2022-12-11T14:18:24.955Z,-1.11
2022-12-11T14:20:58.870Z,-1.16
2022-12-11T14:23:33.377Z,-1.24
2022-12-11T14:26:03.183Z,-1.25
2022-12-11T14:28:38.429Z,-1.31
2022-12-11T14:31:08.007Z,-1.27
2022-12-11T14:33:39.889Z,-1.42
2022-12-11T14:36:10.166Z,-1.39
2022-12-11T14:38:47.569Z,-1.29
2022-12-11T14:41:28.680Z,-1.27
2022-12-11T14:43:59.037Z,-1.33
2022-12-11T14:46:34.060Z,-1.33
2022-12-11T14:49:07.052Z,-1.36
2022-12-11T14:51:38.313Z,-1.37
2022-12-11T14:54:17.330Z,-1.33
2022-12-11T14:56:49.244Z,-1.36
2022-12-11T14:59:25.472Z,-1.27
2022-12-11T15:02:01.666Z,-1.25
2022-12-11T15:04:32.309Z,-1.24
2022-12-11T15:07:01.524Z,-1.15
2022-12-11T15:09:39.830Z,-1.20
2022-12-11T15:12:13.142Z,-1.19
2022-12-11T15:14:46.860Z,-1.20
2022-12-11T15:17:16.788Z,-1.21
2022-12-11T15:19:51.093Z,-1.24
2022-12-11T15:22:20.515Z,-1.16
2022-12-11T15:24:55.003Z,-1.20
2022-12-11T15:27:27.315Z,-1.17
2022-12-11T15:29:57.931Z,-1.27
2022-12-11T15:32:30.216Z,-1.28
2022-12-11T15:35:08.872Z,-1.30
2022-12-11T15:37:40.669Z,-1.30
2022-12-11T15:40:12.205Z,-1.25
2022-12-11T15:42:43.014Z,-1.20
2022-12-11T15:45:18.357Z,-1.22
2022-12-11T15:47:51.279Z,-1.17
2022-12-11T15:50:23.100Z,-1.12
2022-12-11T15:52:53.348Z,-1.15
2022-12-11T15:55:26.518Z,-1.17
2022-12-11T15:57:58.070Z,-1.23
2022-12-11T16:00:28.360Z,-1.22
2022-12-11T16:02:58.275Z,-1.19
2022-12-11T16:05:32.770Z,-1.17
2022-12-11T16:08:01.412Z,-1.14
2022-12-11T16:10:32.681Z,-1.20
2022-12-11T16:13:02.569Z,-1.23
2022-12-11T16:15:32.334Z,-1.18
2022-12-11T16:18:03.180Z,-1.19
2022-12-11T16:20:32.734Z,-1.29
2022-12-11T16:23:01.238Z,-1.24
2022-12-11T16:25:31.624Z,-1.27
2022-12-11T16:28:02.764Z,-1.22
2022-12-11T16:30:32.213Z,-1.24
2022-12-11T16:33:01.193Z,-1.28
2022-12-11T16:35:34.079Z,-1.25
2022-12-11T16:38:02.927Z,-1.34
2022-12-11T16:40:34.181Z,-1.32
2022-12-11T16:43:04.962Z,-1.36
2022-12-11T16:45:34.428Z,-1.39
2022-12-11T16:48:09.535Z,-1.33
2022-12-11T16:50:41.233Z,-1.32
2022-12-11T16:53:09.635Z,-1.26
2022-12-11T16:55:40.838Z,-1.30
2022-12-11T16:58:11.193Z,-1.33
2022-12-11T17:00:40.886Z,-1.37
2022-12-11T17:03:12.129Z,-1.32
2022-12-11T17:05:44.182Z,-1.30
2022-12-11T17:08:13.802Z,-1.18
2022-12-11T17:10:44.929Z,-1.26
2022-12-11T17:13:15.484Z,-1.39
2022-12-11T17:15:43.986Z,-1.39
2022-12-11T17:18:12.462Z,-1.31
2022-12-11T17:20:41.725Z,-1.37
2022-12-11T17:23:10.618Z,-1.39
2022-12-11T17:25:41.551Z,-1.31
2022-12-11T17:28:11.728Z,-1.36
2022-12-11T17:30:42.759Z,-1.36
2022-12-11T17:33:10.889Z,-1.33
2022-12-11T17:35:39.791Z,-1.33
2022-12-11T17:38:09.615Z,-1.34
2022-12-11T17:40:41.237Z,-1.31
2022-12-11T17:43:09.490Z,-1.30
2022-12-11T17:45:44.384Z,-1.31
2022-12-11T17:48:12.946Z,-1.25
2022-12-11T17:50:42.641Z,-1.27
2022-12-11T17:53:12.939Z,-1.38
2022-12-11T17:55:42.827Z,-1.29
2022-12-11T17:58:13.096Z,-1.25
2022-12-11T18:00:45.673Z,-1.28
2022-12-11T18:03:14.943Z,-1.24
2022-12-11T18:05:44.198Z,-1.34
2022-12-11T18:08:14.410Z,-1.36
2022-12-11T18:10:43.117Z,-1.38
2022-12-11T18:13:12.998Z,-1.41
2022-12-11T18:15:44.077Z,-1.36
2022-12-11T18:18:12.718Z,-1.37
2022-12-11T18:20:41.107Z,-1.39
2022-12-11T18:23:09.142Z,-1.34
2022-12-11T18:25:37.749Z,-1.39
2022-12-11T18:28:06.539Z,-1.36
2022-12-11T18:30:36.593Z,-1.30
2022-12-11T18:33:06.623Z,-1.30
2022-12-11T18:35:37.422Z,-1.30
2022-12-11T18:38:06.317Z,-1.41
2022-12-11T18:40:34.988Z,-1.49
2022-12-11T18:43:06.916Z,-1.45
2022-12-11T18:45:37.228Z,-1.50
2022-12-11T18:48:08.279Z,-1.52
2022-12-11T18:50:43.368Z,-1.48
2022-12-11T18:53:13.807Z,-1.47
2022-12-11T18:55:47.625Z,-1.56
2022-12-11T18:58:18.378Z,-1.57
2022-12-11T19:00:48.081Z,-1.57
2022-12-11T19:03:18.496Z,-1.54
2022-12-11T19:05:50.035Z,-1.54
2022-12-11T19:08:18.677Z,-1.61
2022-12-11T19:10:50.418Z,-1.52
2022-12-11T19:13:20.132Z,-1.52
2022-12-11T19:15:48.386Z,-1.57
2022-12-11T19:18:18.452Z,-1.58
2022-12-11T19:20:50.150Z,-1.56
2022-12-11T19:23:25.708Z,-1.54
2022-12-11T19:25:55.871Z,-1.57
2022-12-11T19:28:25.751Z,-1.54
2022-12-11T19:30:55.053Z,-1.54
2022-12-11T19:33:24.810Z,-1.55
2022-12-11T19:36:03.538Z,-1.52
2022-12-11T19:38:32.388Z,-1.59
2022-12-11T19:41:06.623Z,-1.67
2022-12-11T19:43:37.460Z,-1.59
2022-12-11T19:46:08.231Z,-1.60
2022-12-11T19:48:42.466Z,-1.62
2022-12-11T19:51:13.024Z,-1.56
2022-12-11T19:53:42.421Z,-1.53
2022-12-11T19:56:12.988Z,-1.50
2022-12-11T19:58:43.285Z,-1.52
2022-12-11T20:01:25.009Z,-1.47
2022-12-11T20:04:04.471Z,-1.40
2022-12-11T20:06:33.868Z,-1.47
2022-12-11T20:09:10.837Z,-1.53
2022-12-11T20:11:41.365Z,-1.41
2022-12-11T20:14:10.165Z,-1.37
2022-12-11T20:17:09.165Z,-1.43
2022-12-11T20:19:29.897Z,-1.34
2022-12-11T20:22:04.942Z,-1.33
2022-12-11T20:24:35.546Z,-1.36
2022-12-11T20:27:04.730Z,-1.42
2022-12-11T20:29:36.055Z,-1.39
2022-12-11T20:32:07.318Z,-1.50
2022-12-11T20:34:40.336Z,-1.46
2022-12-11T20:37:09.126Z,-1.45
2022-12-11T20:39:41.106Z,-1.39
2022-12-11T20:42:12.314Z,-1.52
2022-12-11T20:44:45.633Z,-1.49
2022-12-11T20:47:19.882Z,-1.41
2022-12-11T20:49:50.208Z,-1.43
2022-12-11T20:52:22.544Z,-1.36
2022-12-11T20:54:52.123Z,-1.38
2022-12-11T20:57:22.986Z,-1.48
2022-12-11T20:59:51.159Z,-1.22
2022-12-11T21:02:20.427Z,-1.44
2022-12-11T21:04:55.004Z,-1.36
2022-12-11T21:07:23.651Z,-1.40
2022-12-11T21:09:53.712Z,-1.47
2022-12-11T21:12:29.795Z,-1.46
2022-12-11T21:14:59.877Z,-1.48
2022-12-11T21:17:31.666Z,-1.45
2022-12-11T21:20:04.157Z,-1.41
2022-12-11T21:22:33.072Z,-1.33
2022-12-11T21:25:04.227Z,-1.35
2022-12-11T21:27:39.747Z,-1.43
2022-12-11T21:30:09.614Z,-1.43
2022-12-11T21:32:44.530Z,-1.60
2022-12-11T21:35:14.674Z,-1.54
2022-12-11T21:37:42.969Z,-1.53
2022-12-11T21:40:13.873Z,-1.54
2022-12-11T21:42:44.816Z,-1.47
2022-12-11T21:48:04.490Z,-1.50
2022-12-11T21:50:35.037Z,-1.53
2022-12-11T21:53:04.629Z,-1.49
2022-12-11T21:55:42.274Z,-1.45
2022-12-11T21:58:11.151Z,-1.51
2022-12-11T22:00:41.045Z,-1.48
2022-12-11T22:03:10.150Z,-1.46
2022-12-11T22:05:42.788Z,-1.50
2022-12-11T22:08:11.559Z,-1.43
2022-12-11T22:10:40.651Z,-1.46
2022-12-11T22:13:10.715Z,-1.47
2022-12-11T22:15:43.616Z,-1.53
2022-12-11T22:18:16.056Z,-1.59
2022-12-11T22:20:48.569Z,-1.66
2022-12-11T22:23:17.024Z,-1.62
2022-12-11T22:25:54.710Z,-1.68
2022-12-11T22:28:23.626Z,-1.65
2022-12-11T22:30:51.837Z,-1.59
2022-12-11T22:33:24.053Z,-1.59
2022-12-11T22:36:01.912Z,-1.54
2022-12-11T22:38:30.952Z,-1.62
2022-12-11T22:41:03.350Z,-1.63
2022-12-11T22:43:31.351Z,-1.59
2022-12-11T22:45:59.498Z,-1.55
2022-12-11T22:48:29.848Z,-1.49
2022-12-11T22:51:05.630Z,-1.49
2022-12-11T22:53:33.828Z,-1.50
2022-12-11T22:56:06.110Z,-1.47
2022-12-11T22:58:36.392Z,-1.41
2022-12-11T23:01:10.938Z,-1.50
2022-12-11T23:03:39.133Z,-1.34
2022-12-11T23:06:13.675Z,-1.44
2022-12-11T23:08:47.643Z,-1.40
2022-12-11T23:11:18.958Z,-1.33
2022-12-11T23:13:51.806Z,-1.33
2022-12-11T23:16:22.207Z,-1.37
2022-12-11T23:18:52.624Z,-1.34
2022-12-11T23:21:26.266Z,-1.32
2022-12-11T23:23:59.322Z,-1.32
2022-12-11T23:26:30.073Z,-1.35
2022-12-11T23:29:05.312Z,-1.33
2022-12-11T23:31:40.133Z,-1.26
2022-12-11T23:34:09.979Z,-1.33
2022-12-11T23:36:41.320Z,-1.40
2022-12-11T23:39:10.028Z,-1.36
2022-12-11T23:41:38.448Z,-1.36
2022-12-11T23:44:06.894Z,-1.26
2022-12-11T23:46:36.208Z,-1.22
2022-12-11T23:49:05.853Z,-1.30
2022-12-11T23:51:35.751Z,-1.35
2022-12-11T23:54:08.795Z,-1.34
2022-12-11T23:56:36.973Z,-1.32
2022-12-11T23:59:05.145Z,-1.38
